Time;durP1;ratioP1;P1;durP2;ratioP2;P2;SDS_P1;SDS_P2;PMS_P1;PMS_P2;Temp;Humidity;BMP_temperature;BMP_pressure;BME280_temperature;BME280_humidity;BME280_pressure;Samples;Min_cycle;Max_cycle;Signal;HPM_P1;HPM_P2
2023/01/23 00:02:20;;;;;;;5.80;5.30;;;;;;;;;;5056403;28;20206;-85
2023/01/23 00:04:48;;;;;;;6.63;6.03;;;;;;;;;;5053889;28;20230;-89
2023/01/23 00:07:16;;;;;;;6.85;5.82;;;;;;;;;;5053126;28;20200;-89
2023/01/23 00:09:43;;;;;;;6.63;6.00;;;;;;;;;;5052440;28;20288;-89
2023/01/23 00:12:11;;;;;;;5.78;5.18;;;;;;;;;;5053059;28;20237;-90
2023/01/23 00:14:38;;;;;;;6.57;5.93;;;;;;;;;;5053368;28;20248;-89
2023/01/23 00:17:07;;;;;;;5.13;4.63;;;;;;;;;;5053094;28;20212;-89
2023/01/23 00:19:35;;;;;;;6.57;5.65;;;;;;;;;;5052412;28;20225;-90
2023/01/23 00:22:02;;;;;;;6.43;5.70;;;;;;;;;;5052905;28;20241;-89
2023/01/23 00:24:30;;;;;;;6.28;5.65;;;;;;;;;;5052978;28;20257;-89
2023/01/23 00:27:00;;;;;;;5.43;4.93;;;;;;;;;;5053187;28;20234;-90
2023/01/23 00:29:28;;;;;;;6.05;5.55;;;;;;;;;;5052505;28;20193;-88
2023/01/23 00:31:55;;;;;;;6.80;6.10;;;;;;;;;;5053256;28;20629;-89
2023/01/23 00:34:24;;;;;;;6.53;5.90;;;;;;;;;;5052764;28;20249;-89
2023/01/23 00:36:51;;;;;;;6.13;5.28;;;;;;;;;;5052783;28;20277;-89
2023/01/23 00:39:21;;;;;;;7.18;6.45;;;;;;;;;;5051830;28;20259;-89
2023/01/23 00:41:50;;;;;;;6.60;5.65;;;;;;;;;;5053413;28;20227;-89
2023/01/23 00:44:17;;;;;;;7.10;6.40;;;;;;;;;;5052159;28;20229;-90
2023/01/23 00:46:45;;;;;;;6.78;6.15;;;;;;;;;;5052750;28;20240;-89
2023/01/23 00:49:13;;;;;;;6.90;6.20;;;;;;;;;;5051897;28;20569;-89
2023/01/23 00:51:41;;;;;;;8.75;7.90;;;;;;;;;;5052335;28;20215;-89
2023/01/23 00:54:09;;;;;;;7.22;6.30;;;;;;;;;;5052926;28;20304;-89
2023/01/23 00:56:36;;;;;;;7.10;6.38;;;;;;;;;;5052948;28;20209;-89
2023/01/23 00:59:04;;;;;;;6.72;5.95;;;;;;;;;;5052427;28;20300;-89
2023/01/23 01:01:31;;;;;;;6.13;5.53;;;;;;;;;;5052502;28;20297;-89
2023/01/23 01:03:59;;;;;;;6.70;5.88;;;;;;;;;;5051556;28;20628;-89
2023/01/23 01:06:28;;;;;;;7.00;6.30;;;;;;;;;;5052487;28;20266;-89
2023/01/23 01:08:58;;;;;;;6.63;6.03;;;;;;;;;;5051981;28;20228;-89
2023/01/23 01:11:26;;;;;;;7.45;6.65;;;;;;;;;;5052282;28;20283;-88
2023/01/23 01:13:53;;;;;;;7.55;6.43;;;;;;;;;;5052533;28;20221;-89
2023/01/23 01:16:23;;;;;;;6.78;6.03;;;;;;;;;;5052869;28;20233;-89
2023/01/23 01:18:50;;;;;;;7.28;6.40;;;;;;;;;;5051926;28;20720;-90
2023/01/23 01:21:19;;;;;;;7.63;6.07;;;;;;;;;;5052294;28;20193;-89
2023/01/23 01:23:46;;;;;;;6.30;5.65;;;;;;;;;;5052578;28;20225;-89
2023/01/23 01:26:15;;;;;;;6.88;6.18;;;;;;;;;;5052516;28;20233;-89
2023/01/23 01:28:43;;;;;;;5.53;5.03;;;;;;;;;;5051899;28;20201;-90
2023/01/23 01:31:14;;;;;;;8.10;7.30;;;;;;;;;;5052636;28;20240;-88
2023/01/23 01:33:43;;;;;;;7.38;6.55;;;;;;;;;;5053193;28;20224;-89
2023/01/23 01:36:11;;;;;;;5.95;5.45;;;;;;;;;;5052789;28;20216;-90
2023/01/23 01:38:38;;;;;;;5.60;5.10;;;;;;;;;;5052392;28;20202;-89
2023/01/23 01:41:07;;;;;;;7.18;6.25;;;;;;;;;;5052676;28;20196;-88
2023/01/23 01:43:36;;;;;;;7.13;6.20;;;;;;;;;;5052502;28;20230;-89
2023/01/23 01:46:19;;;;;;;5.97;5.32;;;;;;;;;;5052682;28;20292;-88
2023/01/23 01:48:54;;;;;;;5.47;4.97;;;;;;;;;;5051896;28;20284;-89
2023/01/23 01:51:28;;;;;;;4.50;4.10;;;;;;;;;;5052599;28;20273;-89
2023/01/23 01:54:03;;;;;;;7.10;6.45;;;;;;;;;;5052297;28;20217;-89
2023/01/23 01:56:33;;;;;;;5.50;5.03;;;;;;;;;;5052518;28;20264;-89
2023/01/23 01:59:02;;;;;;;6.43;5.80;;;;;;;;;;5051725;28;20665;-89
2023/01/23 02:01:30;;;;;;;5.75;4.97;;;;;;;;;;5051981;28;20221;-88
2023/01/23 02:03:58;;;;;;;5.07;4.57;;;;;;;;;;5051056;28;20230;-88
2023/01/23 02:06:26;;;;;;;5.68;5.10;;;;;;;;;;5055360;28;20233;-89
2023/01/23 02:09:00;;;;;;;5.65;4.63;;;;;;;;;;5055268;28;20285;-88
2023/01/23 02:11:28;;;;;;;4.75;4.35;;;;;;;;;;5056067;28;20351;-89
2023/01/23 02:13:56;;;;;;;4.85;4.20;;;;;;;;;;5055470;28;20289;-89
2023/01/23 02:16:29;;;;;;;6.00;5.00;;;;;;;;;;5055666;28;20197;-88
2023/01/23 02:19:01;;;;;;;5.70;5.05;;;;;;;;;;5055174;28;20271;-90
2023/01/23 02:21:28;;;;;;;6.15;5.10;;;;;;;;;;5055410;28;20265;-89
2023/01/23 02:24:12;;;;;;;4.20;3.80;;;;;;;;;;5055122;28;20229;-89
2023/01/23 02:26:44;;;;;;;5.03;4.63;;;;;;;;;;5055629;28;20320;-89
2023/01/23 02:29:12;;;;;;;5.20;4.70;;;;;;;;;;5054904;28;20212;-89
2023/01/23 02:31:41;;;;;;;5.70;5.13;;;;;;;;;;5055060;28;20202;-90
2023/01/23 02:34:12;;;;;;;6.18;5.57;;;;;;;;;;5055212;28;20632;-88
2023/01/23 02:36:42;;;;;;;5.32;4.68;;;;;;;;;;5055574;28;20190;-89
2023/01/23 02:39:13;;;;;;;5.43;4.93;;;;;;;;;;5054803;28;20192;-89
2023/01/23 02:41:44;;;;;;;5.00;4.50;;;;;;;;;;5055498;28;20592;-90
2023/01/23 02:44:16;;;;;;;5.05;4.43;;;;;;;;;;5055115;28;20236;-89
2023/01/23 02:46:44;;;;;;;5.00;4.60;;;;;;;;;;5055324;28;20280;-89
2023/01/23 02:49:12;;;;;;;4.78;4.38;;;;;;;;;;5054851;28;20592;-90
2023/01/23 02:51:39;;;;;;;4.95;4.55;;;;;;;;;;5055226;28;20718;-90
2023/01/23 02:54:07;;;;;;;4.88;4.40;;;;;;;;;;5054816;28;20317;-89
2023/01/23 02:56:35;;;;;;;5.88;5.28;;;;;;;;;;5054984;28;20208;-90
2023/01/23 03:01:50;;;;;;;5.50;4.88;;;;;;;;;;5053685;28;20192;-88
2023/01/23 03:04:17;;;;;;;4.30;4.00;;;;;;;;;;5053431;28;20832;-89
2023/01/23 03:06:45;;;;;;;7.10;6.35;;;;;;;;;;5054761;28;20221;-89
2023/01/23 03:09:15;;;;;;;5.03;4.50;;;;;;;;;;5054082;28;20244;-89
2023/01/23 03:11:45;;;;;;;6.78;5.80;;;;;;;;;;5054327;28;20292;-88
2023/01/23 03:14:18;;;;;;;6.45;5.85;;;;;;;;;;5054730;28;20300;-88
2023/01/23 03:16:50;;;;;;;4.60;4.18;;;;;;;;;;5054610;28;20280;-89
2023/01/23 03:19:19;;;;;;;4.47;4.07;;;;;;;;;;5054216;28;20198;-90
2023/01/23 03:21:46;;;;;;;3.75;3.40;;;;;;;;;;5054511;28;20198;-89
2023/01/23 03:24:15;;;;;;;4.43;4.03;;;;;;;;;;5054552;28;20308;-89
2023/01/23 03:26:44;;;;;;;4.97;4.53;;;;;;;;;;5054511;28;20201;-89
2023/01/23 03:32:01;;;;;;;5.45;4.95;;;;;;;;;;5054269;28;20236;-89
2023/01/23 03:34:28;;;;;;;5.78;4.82;;;;;;;;;;5054562;28;20309;-88
2023/01/23 03:36:57;;;;;;;4.95;4.55;;;;;;;;;;5054224;28;20584;-90
2023/01/23 03:42:10;;;;;;;5.15;4.65;;;;;;;;;;5054401;28;20193;-90
2023/01/23 03:44:39;;;;;;;5.05;4.65;;;;;;;;;;5054024;28;20248;-88
2023/01/23 03:47:07;;;;;;;4.43;4.13;;;;;;;;;;5053934;28;20637;-89
2023/01/23 03:49:34;;;;;;;4.30;3.90;;;;;;;;;;5053115;28;20200;-89
2023/01/23 03:52:02;;;;;;;3.50;3.20;;;;;;;;;;5054015;28;20293;-89
2023/01/23 03:54:30;;;;;;;4.97;4.57;;;;;;;;;;5053702;28;20678;-90
2023/01/23 03:56:57;;;;;;;4.30;3.85;;;;;;;;;;5053757;28;20215;-89
2023/01/23 03:59:25;;;;;;;4.25;3.85;;;;;;;;;;5053082;28;20232;-89
2023/01/23 04:01:54;;;;;;;5.13;4.63;;;;;;;;;;5052116;28;20289;-89
2023/01/23 04:04:22;;;;;;;5.55;4.93;;;;;;;;;;5052124;28;20229;-89
2023/01/23 04:06:49;;;;;;;5.93;5.28;;;;;;;;;;5053252;28;20264;-89
2023/01/23 04:09:19;;;;;;;3.80;3.40;;;;;;;;;;5053220;28;20283;-89
2023/01/23 04:11:46;;;;;;;2.90;2.70;;;;;;;;;;5053148;28;20276;-89
2023/01/23 04:14:14;;;;;;;4.25;3.85;;;;;;;;;;5053597;28;20976;-89
2023/01/23 04:16:41;;;;;;;4.70;4.28;;;;;;;;;;5053266;28;20372;-89
2023/01/23 04:19:10;;;;;;;3.92;3.53;;;;;;;;;;5052487;28;20252;-89
2023/01/23 04:21:37;;;;;;;4.57;4.10;;;;;;;;;;5053139;28;20202;-90
2023/01/23 04:24:06;;;;;;;4.05;3.65;;;;;;;;;;5053035;28;20221;-89
2023/01/23 04:26:34;;;;;;;5.57;4.40;;;;;;;;;;5052884;28;20303;-89
2023/01/23 04:29:02;;;;;;;4.82;4.32;;;;;;;;;;5052811;28;20201;-90
2023/01/23 04:31:29;;;;;;;3.70;3.40;;;;;;;;;;5053092;28;20289;-88
2023/01/23 04:33:57;;;;;;;3.67;3.38;;;;;;;;;;5052969;28;20580;-89
2023/01/23 04:36:25;;;;;;;2.92;2.72;;;;;;;;;;5053345;28;20635;-89
2023/01/23 04:38:53;;;;;;;3.30;3.00;;;;;;;;;;5052125;28;20292;-89
2023/01/23 04:41:24;;;;;;;3.05;2.85;;;;;;;;;;5052931;28;20228;-88
2023/01/23 04:43:52;;;;;;;3.13;2.92;;;;;;;;;;5052656;28;20305;-89
2023/01/23 04:46:19;;;;;;;3.45;3.15;;;;;;;;;;5052931;28;20660;-89
2023/01/23 04:48:47;;;;;;;3.35;3.10;;;;;;;;;;5050548;28;20244;-88
2023/01/23 04:51:14;;;;;;;2.97;2.78;;;;;;;;;;5052632;28;20236;-88
2023/01/23 04:53:43;;;;;;;3.33;3.13;;;;;;;;;;5052745;28;20643;-90
2023/01/23 04:56:11;;;;;;;2.88;2.67;;;;;;;;;;5052909;28;20289;-89
2023/01/23 04:58:38;;;;;;;3.75;3.42;;;;;;;;;;5052294;28;20221;-89
2023/01/23 05:01:07;;;;;;;3.90;3.50;;;;;;;;;;5052462;28;20280;-89
2023/01/23 05:03:36;;;;;;;4.38;3.97;;;;;;;;;;5050934;28;20221;-88
2023/01/23 05:06:03;;;;;;;5.07;4.57;;;;;;;;;;5053129;28;20297;-88
2023/01/23 05:08:31;;;;;;;4.10;3.75;;;;;;;;;;5052209;28;20293;-88
2023/01/23 05:11:00;;;;;;;4.53;4.00;;;;;;;;;;5052547;28;20289;-90
2023/01/23 05:13:27;;;;;;;4.63;4.13;;;;;;;;;;5052758;28;20252;-90
2023/01/23 05:15:55;;;;;;;4.50;3.90;;;;;;;;;;5052908;28;20229;-89
2023/01/23 05:18:22;;;;;;;5.25;4.75;;;;;;;;;;5052134;28;20705;-89
2023/01/23 05:20:50;;;;;;;5.70;4.95;;;;;;;;;;5052615;28;20237;-89
2023/01/23 05:23:18;;;;;;;5.97;5.38;;;;;;;;;;5053203;28;20304;-89
2023/01/23 05:25:46;;;;;;;6.93;6.20;;;;;;;;;;5052805;28;20327;-89
2023/01/23 05:28:15;;;;;;;4.80;4.40;;;;;;;;;;5052372;28;20212;-89
2023/01/23 05:30:42;;;;;;;6.55;5.85;;;;;;;;;;5053239;28;20296;-89
2023/01/23 05:33:10;;;;;;;5.35;4.85;;;;;;;;;;5052792;28;20438;-88
2023/01/23 05:35:39;;;;;;;5.07;4.38;;;;;;;;;;5052769;28;20241;-89
2023/01/23 05:38:06;;;;;;;8.27;5.28;;;;;;;;;;5051925;28;20658;-90
2023/01/23 05:40:34;;;;;;;6.40;5.55;;;;;;;;;;5055673;28;20193;-89
2023/01/23 05:43:02;;;;;;;4.97;4.38;;;;;;;;;;5056546;28;20224;-88
2023/01/23 05:45:30;;;;;;;4.78;4.32;;;;;;;;;;5056397;28;20537;-89
2023/01/23 05:47:58;;;;;;;5.40;4.90;;;;;;;;;;5057042;28;20630;-89
2023/01/23 05:50:25;;;;;;;5.72;5.13;;;;;;;;;;5056068;28;20676;-90
2023/01/23 05:52:53;;;;;;;4.60;4.10;;;;;;;;;;5055941;28;20221;-90
2023/01/23 05:55:20;;;;;;;5.05;4.55;;;;;;;;;;5056031;28;20248;-88
2023/01/23 05:57:48;;;;;;;4.53;4.18;;;;;;;;;;5055923;28;20233;-90
2023/01/23 06:00:17;;;;;;;5.45;4.88;;;;;;;;;;5055963;28;20229;-89
2023/01/23 06:02:47;;;;;;;5.13;4.63;;;;;;;;;;5055052;28;20193;-89
2023/01/23 06:05:14;;;;;;;3.45;3.15;;;;;;;;;;5057945;28;20209;-85
2023/01/23 06:07:42;;;;;;;3.08;2.78;;;;;;;;;;5058489;28;20223;-86
2023/01/23 06:10:10;;;;;;;4.25;3.28;;;;;;;;;;5058258;28;20244;-86
2023/01/23 06:12:38;;;;;;;3.50;3.20;;;;;;;;;;5057848;28;20205;-86
2023/01/23 06:15:08;;;;;;;4.68;4.25;;;;;;;;;;5058134;28;20670;-86
2023/01/23 06:17:35;;;;;;;5.90;5.20;;;;;;;;;;5057225;28;20232;-85
2023/01/23 06:20:05;;;;;;;5.38;4.85;;;;;;;;;;5057626;28;20288;-85
2023/01/23 06:22:32;;;;;;;4.95;4.00;;;;;;;;;;5057500;28;20209;-85
2023/01/23 06:25:00;;;;;;;4.70;3.72;;;;;;;;;;5057412;28;20234;-85
2023/01/23 06:27:29;;;;;;;4.25;3.85;;;;;;;;;;5057713;28;20752;-86
2023/01/23 06:29:56;;;;;;;7.90;5.25;;;;;;;;;;5057892;28;20679;-85
2023/01/23 06:32:24;;;;;;;5.05;4.55;;;;;;;;;;5058314;28;20296;-86
2023/01/23 06:34:51;;;;;;;4.97;4.40;;;;;;;;;;5057704;28;20316;-85
2023/01/23 06:37:20;;;;;;;4.25;3.85;;;;;;;;;;5057870;28;20288;-86
2023/01/23 06:39:48;;;;;;;4.25;3.85;;;;;;;;;;5058157;28;20293;-85
2023/01/23 06:42:15;;;;;;;3.15;2.75;;;;;;;;;;5058440;28;20240;-85
2023/01/23 06:44:43;;;;;;;4.32;3.92;;;;;;;;;;5058905;28;20324;-84
2023/01/23 06:47:11;;;;;;;4.47;4.07;;;;;;;;;;5059083;28;20221;-85
2023/01/23 06:49:38;;;;;;;5.68;5.07;;;;;;;;;;5059305;28;20212;-85
2023/01/23 06:52:06;;;;;;;5.40;4.90;;;;;;;;;;5059075;28;20204;-85
2023/01/23 06:54:35;;;;;;;5.03;4.53;;;;;;;;;;5058374;28;20244;-83
2023/01/23 06:57:04;;;;;;;5.85;4.97;;;;;;;;;;5057605;28;20198;-86
2023/01/23 06:59:32;;;;;;;5.10;4.53;;;;;;;;;;5057720;28;20432;-86
2023/01/23 07:01:59;;;;;;;5.10;4.40;;;;;;;;;;5058257;28;20284;-85
2023/01/23 07:04:27;;;;;;;5.53;4.95;;;;;;;;;;5056251;28;20240;-86
2023/01/23 07:06:54;;;;;;;7.70;6.28;;;;;;;;;;5058562;28;20222;-85
2023/01/23 07:09:22;;;;;;;5.13;4.63;;;;;;;;;;5056509;28;20682;-84
2023/01/23 07:11:51;;;;;;;5.60;5.07;;;;;;;;;;5057747;28;20263;-85
2023/01/23 07:14:18;;;;;;;5.63;4.63;;;;;;;;;;5056678;28;20650;-86
2023/01/23 07:16:46;;;;;;;5.25;4.63;;;;;;;;;;5056758;28;20676;-86
2023/01/23 07:19:13;;;;;;;7.53;6.25;;;;;;;;;;5055622;28;20288;-85
2023/01/23 07:21:41;;;;;;;5.85;5.28;;;;;;;;;;5056367;28;20245;-86
2023/01/23 07:24:08;;;;;;;5.70;5.18;;;;;;;;;;5056638;28;20289;-85
2023/01/23 07:26:36;;;;;;;7.07;5.63;;;;;;;;;;5058324;28;20208;-85
2023/01/23 07:29:07;;;;;;;4.57;4.20;;;;;;;;;;5056706;28;20233;-87
2023/01/23 07:31:35;;;;;;;4.35;3.70;;;;;;;;;;5057621;28;20205;-84
2023/01/23 07:34:04;;;;;;;3.80;3.50;;;;;;;;;;5056938;28;20264;-86
2023/01/23 07:36:32;;;;;;;4.30;3.85;;;;;;;;;;5056917;28;20269;-87
2023/01/23 07:38:59;;;;;;;4.20;3.80;;;;;;;;;;5057931;28;20222;-85
2023/01/23 07:41:27;;;;;;;3.53;3.22;;;;;;;;;;5056974;28;20211;-86
2023/01/23 07:43:54;;;;;;;4.03;3.63;;;;;;;;;;5057227;28;20316;-86
2023/01/23 07:46:24;;;;;;;4.38;3.97;;;;;;;;;;5057012;28;20197;-85
2023/01/23 07:48:52;;;;;;;3.63;3.33;;;;;;;;;;5057015;28;20225;-84
2023/01/23 07:51:19;;;;;;;3.50;3.05;;;;;;;;;;5057164;28;20312;-85
2023/01/23 07:53:47;;;;;;;4.45;4.00;;;;;;;;;;5057372;28;20272;-86
2023/01/23 07:56:14;;;;;;;3.88;3.47;;;;;;;;;;5057826;28;20301;-85
2023/01/23 07:58:42;;;;;;;3.70;3.40;;;;;;;;;;5056400;28;20225;-85
2023/01/23 08:01:11;;;;;;;5.38;4.88;;;;;;;;;;5055900;28;20201;-86
2023/01/23 08:03:40;;;;;;;6.72;5.13;;;;;;;;;;5056509;28;20232;-85
2023/01/23 08:06:08;;;;;;;5.47;4.53;;;;;;;;;;5056636;28;20581;-84
2023/01/23 08:08:36;;;;;;;5.72;5.18;;;;;;;;;;5056987;28;20261;-84
2023/01/23 08:11:05;;;;;;;5.85;5.10;;;;;;;;;;5056721;28;20240;-85
2023/01/23 08:13:33;;;;;;;6.65;5.85;;;;;;;;;;5055785;28;20776;-83
2023/01/23 08:16:00;;;;;;;7.18;5.53;;;;;;;;;;5055740;28;20202;-85
2023/01/23 08:18:30;;;;;;;9.13;6.93;;;;;;;;;;5055987;28;20288;-84
2023/01/23 08:21:02;;;;;;;8.70;7.00;;;;;;;;;;5056860;28;20240;-85
2023/01/23 08:23:32;;;;;;;7.45;6.70;;;;;;;;;;5056146;28;20686;-84
2023/01/23 08:26:01;;;;;;;9.13;7.40;;;;;;;;;;5057164;28;20201;-85
2023/01/23 08:28:29;;;;;;;7.72;6.47;;;;;;;;;;5057476;28;20860;-85
2023/01/23 08:30:59;;;;;;;9.00;7.25;;;;;;;;;;5057396;28;20212;-85
2023/01/23 08:33:27;;;;;;;7.60;6.63;;;;;;;;;;5057267;28;20252;-85
2023/01/23 08:35:56;;;;;;;9.10;7.38;;;;;;;;;;5056593;28;20296;-86
2023/01/23 08:38:26;;;;;;;6.53;5.82;;;;;;;;;;5056847;28;20204;-85
2023/01/23 08:40:55;;;;;;;7.70;6.47;;;;;;;;;;5057767;28;20237;-85
2023/01/23 08:43:22;;;;;;;7.10;6.25;;;;;;;;;;5056864;28;20222;-84
2023/01/23 08:45:51;;;;;;;7.22;6.53;;;;;;;;;;5057182;28;20202;-84
2023/01/23 08:48:20;;;;;;;5.93;5.32;;;;;;;;;;5057024;28;20312;-86
2023/01/23 08:50:47;;;;;;;6.95;5.43;;;;;;;;;;5057280;28;20264;-86
2023/01/23 08:53:15;;;;;;;8.20;5.18;;;;;;;;;;5056138;28;20256;-84
2023/01/23 08:55:44;;;;;;;7.40;6.20;;;;;;;;;;5056380;28;20738;-86
2023/01/23 08:58:12;;;;;;;7.63;5.57;;;;;;;;;;5055308;28;20559;-85
2023/01/23 09:00:40;;;;;;;8.57;7.22;;;;;;;;;;5056708;28;20208;-87
2023/01/23 09:03:07;;;;;;;5.82;4.75;;;;;;;;;;5055800;28;20676;-85
2023/01/23 09:05:36;;;;;;;6.50;4.93;;;;;;;;;;5057679;28;20634;-86
2023/01/23 09:08:04;;;;;;;9.02;6.82;;;;;;;;;;5057529;28;20253;-85
2023/01/23 09:10:32;;;;;;;7.20;5.22;;;;;;;;;;5056948;28;20252;-85
2023/01/23 09:13:01;;;;;;;6.30;5.55;;;;;;;;;;5056248;28;20217;-85
2023/01/23 09:15:29;;;;;;;6.15;5.32;;;;;;;;;;5060547;28;20274;-85
2023/01/23 09:17:56;;;;;;;4.75;4.30;;;;;;;;;;5060295;28;20214;-86
2023/01/23 09:20:25;;;;;;;5.57;5.07;;;;;;;;;;5059551;28;20288;-86
2023/01/23 09:22:53;;;;;;;5.45;4.50;;;;;;;;;;5060430;28;20730;-86
2023/01/23 09:25:21;;;;;;;4.75;4.20;;;;;;;;;;5060113;28;20211;-86
2023/01/23 09:27:50;;;;;;;5.10;4.63;;;;;;;;;;5059040;28;20296;-86
2023/01/23 09:30:19;;;;;;;5.80;4.47;;;;;;;;;;5061404;28;20201;-87
2023/01/23 09:32:46;;;;;;;7.57;6.88;;;;;;;;;;5059707;28;20205;-85
2023/01/23 09:35:14;;;;;;;6.88;6.20;;;;;;;;;;5058947;28;20234;-86
2023/01/23 09:37:59;;;;;;;6.00;5.18;;;;;;;;;;5059239;28;20206;-85
2023/01/23 09:40:32;;;;;;;7.15;6.45;;;;;;;;;;5059113;28;20275;-86
2023/01/23 09:43:08;;;;;;;9.18;6.32;;;;;;;;;;5059593;28;20253;-87
2023/01/23 09:45:38;;;;;;;5.65;5.05;;;;;;;;;;5059154;28;20229;-86
2023/01/23 09:48:18;;;;;;;5.93;4.95;;;;;;;;;;5058039;28;20244;-86
2023/01/23 09:50:54;;;;;;;7.70;6.95;;;;;;;;;;5058479;28;20276;-86
2023/01/23 09:53:25;;;;;;;8.52;7.32;;;;;;;;;;5058513;28;20697;-86
2023/01/23 09:55:59;;;;;;;8.98;7.25;;;;;;;;;;5058928;28;20212;-87
2023/01/23 09:58:32;;;;;;;8.05;6.40;;;;;;;;;;5058316;28;20552;-85
2023/01/23 10:01:01;;;;;;;9.88;8.55;;;;;;;;;;5057956;28;20220;-86
2023/01/23 10:03:31;;;;;;;7.30;6.53;;;;;;;;;;5057326;28;20261;-85
2023/01/23 10:06:12;;;;;;;12.10;8.95;;;;;;;;;;5057354;28;20208;-84
2023/01/23 10:08:51;;;;;;;8.80;7.38;;;;;;;;;;5057286;28;20569;-85
2023/01/23 10:11:23;;;;;;;7.22;6.38;;;;;;;;;;5056766;28;20284;-86
2023/01/23 10:14:07;;;;;;;7.55;6.82;;;;;;;;;;5056407;28;20228;-86
2023/01/23 10:16:56;;;;;;;11.90;8.75;;;;;;;;;;5056775;28;20186;-85
2023/01/23 10:19:45;;;;;;;12.88;9.02;;;;;;;;;;5057159;28;20257;-84
2023/01/23 10:22:33;;;;;;;9.27;7.32;;;;;;;;;;5056774;28;20578;-85
2023/01/23 10:25:03;;;;;;;5.60;4.95;;;;;;;;;;5055390;28;20549;-84
2023/01/23 10:27:37;;;;;;;7.38;6.50;;;;;;;;;;5055896;28;20280;-85
2023/01/23 10:30:14;;;;;;;8.35;7.45;;;;;;;;;;5056543;28;20206;-83
2023/01/23 10:32:49;;;;;;;7.00;6.32;;;;;;;;;;5055628;28;20228;-85
2023/01/23 10:35:19;;;;;;;7.78;6.82;;;;;;;;;;5055711;28;20191;-85
2023/01/23 10:37:51;;;;;;;8.88;7.00;;;;;;;;;;5053928;28;20212;-84
2023/01/23 10:43:05;;;;;;;7.07;6.38;;;;;;;;;;5054220;28;20220;-84
2023/01/23 10:45:33;;;;;;;11.68;7.82;;;;;;;;;;5055097;28;20741;-84
2023/01/23 10:48:01;;;;;;;6.63;5.85;;;;;;;;;;5054855;28;20202;-84
2023/01/23 10:50:38;;;;;;;10.52;8.35;;;;;;;;;;5054631;28;20240;-84
2023/01/23 10:53:17;;;;;;;7.60;6.78;;;;;;;;;;5055234;28;20620;-85
2023/01/23 10:55:45;;;;;;;8.95;6.65;;;;;;;;;;5054961;28;20192;-83
2023/01/23 10:58:32;;;;;;;13.55;9.93;;;;;;;;;;5054531;28;20198;-84
2023/01/23 11:01:00;;;;;;;13.68;11.65;;;;;;;;;;5055358;28;20186;-84
2023/01/23 11:03:32;;;;;;;10.30;8.73;;;;;;;;;;5055119;28;20230;-84
2023/01/23 11:06:04;;;;;;;11.15;8.40;;;;;;;;;;5054897;28;20190;-84
2023/01/23 11:08:34;;;;;;;9.48;8.32;;;;;;;;;;5054763;28;20189;-85
2023/01/23 11:11:24;;;;;;;15.02;9.82;;;;;;;;;;5054662;28;20213;-85
2023/01/23 11:14:07;;;;;;;10.50;9.13;;;;;;;;;;5054493;28;20221;-85
2023/01/23 11:16:36;;;;;;;11.23;8.00;;;;;;;;;;5054705;28;20228;-82
2023/01/23 11:19:18;;;;;;;8.40;7.38;;;;;;;;;;5054540;28;20682;-84
2023/01/23 11:21:57;;;;;;;8.55;7.07;;;;;;;;;;5054652;28;20646;-84
2023/01/23 11:24:33;;;;;;;8.80;7.43;;;;;;;;;;5054097;28;20312;-84
2023/01/23 11:27:03;;;;;;;10.73;8.68;;;;;;;;;;5054027;28;20280;-85
2023/01/23 11:29:42;;;;;;;11.05;8.70;;;;;;;;;;5053838;28;20220;-83
2023/01/23 11:32:13;;;;;;;11.15;8.52;;;;;;;;;;5054144;28;20228;-84
2023/01/23 11:34:49;;;;;;;11.27;9.02;;;;;;;;;;5054165;28;20236;-83
2023/01/23 11:37:19;;;;;;;11.75;9.40;;;;;;;;;;5052921;28;20189;-83
2023/01/23 11:39:50;;;;;;;10.88;8.57;;;;;;;;;;5053744;28;20292;-84
2023/01/23 11:42:18;;;;;;;9.30;7.40;;;;;;;;;;5053544;28;20292;-83
2023/01/23 11:44:47;;;;;;;9.65;7.90;;;;;;;;;;5053539;28;20228;-84
2023/01/23 11:47:50;;;;;;;10.75;8.35;;;;;;;;;;5053035;28;20258;-84
2023/01/23 11:50:42;;;;;;;9.57;7.47;;;;;;;;;;5053604;28;20210;-84
2023/01/23 11:53:21;;;;;;;10.93;7.68;;;;;;;;;;5053054;28;20220;-84
2023/01/23 11:56:28;;;;;;;9.82;7.25;;;;;;;;;;5053338;28;20210;-84
2023/01/23 11:59:41;;;;;;;9.63;7.63;;;;;;;;;;5054133;28;20205;-86
2023/01/23 12:02:48;;;;;;;9.98;8.00;;;;;;;;;;5055919;28;20657;-86
2023/01/23 12:05:39;;;;;;;11.35;8.95;;;;;;;;;;5054948;28;20220;-86
2023/01/23 12:08:19;;;;;;;9.45;7.75;;;;;;;;;;5054967;28;20202;-86
2023/01/23 12:10:59;;;;;;;9.10;8.25;;;;;;;;;;5055432;28;20312;-86
2023/01/23 12:13:46;;;;;;;10.52;8.18;;;;;;;;;;5055055;28;20221;-86
2023/01/23 12:16:22;;;;;;;10.13;8.77;;;;;;;;;;5055134;28;20192;-86
2023/01/23 12:19:08;;;;;;;7.00;6.30;;;;;;;;;;5054196;28;20273;-86
2023/01/23 12:21:42;;;;;;;6.70;5.93;;;;;;;;;;5055067;28;20289;-86
2023/01/23 12:24:19;;;;;;;8.23;6.30;;;;;;;;;;5054879;28;20312;-86
2023/01/23 12:27:00;;;;;;;7.13;6.40;;;;;;;;;;5054659;28;20208;-86
2023/01/23 12:29:48;;;;;;;7.75;6.50;;;;;;;;;;5054182;28;20197;-86
2023/01/23 12:32:42;;;;;;;5.95;5.35;;;;;;;;;;5055036;28;20196;-86
2023/01/23 12:35:27;;;;;;;5.00;4.50;;;;;;;;;;5038879;28;20209;-86
2023/01/23 12:38:17;;;;;;;5.53;4.97;;;;;;;;;;5034773;28;20210;-86
2023/01/23 12:40:48;;;;;;;5.40;4.90;;;;;;;;;;5034677;28;20253;-86
2023/01/23 12:43:21;;;;;;;5.20;4.80;;;;;;;;;;5035107;28;20222;-87
2023/01/23 12:45:56;;;;;;;4.43;3.80;;;;;;;;;;5035165;28;20285;-86
2023/01/23 12:48:29;;;;;;;7.55;6.05;;;;;;;;;;5033850;28;20212;-86
2023/01/23 12:51:01;;;;;;;5.68;5.10;;;;;;;;;;5035281;28;20695;-86
2023/01/23 12:53:32;;;;;;;6.95;6.07;;;;;;;;;;5034286;28;20333;-86
2023/01/23 12:56:05;;;;;;;6.53;5.82;;;;;;;;;;5036822;28;20224;-86
2023/01/23 12:58:37;;;;;;;4.63;4.22;;;;;;;;;;5044906;28;20200;-86
2023/01/23 13:01:37;;;;;;;7.85;5.80;;;;;;;;;;5056289;28;20682;-86
2023/01/23 13:04:19;;;;;;;8.57;7.57;;;;;;;;;;5042288;28;20233;-86
2023/01/23 13:06:59;;;;;;;7.18;6.47;;;;;;;;;;5058989;28;20198;-86
2023/01/23 13:09:50;;;;;;;7.95;7.15;;;;;;;;;;5056057;28;20185;-86
2023/01/23 13:12:21;;;;;;;8.65;7.07;;;;;;;;;;5056528;28;20186;-86
2023/01/23 13:14:49;;;;;;;10.27;8.15;;;;;;;;;;5058027;28;20610;-86
2023/01/23 13:17:35;;;;;;;7.90;6.90;;;;;;;;;;5059024;28;20310;-86
2023/01/23 13:23:25;;;;;;;7.10;6.40;;;;;;;;;;5057451;28;20704;-86
2023/01/23 13:26:27;;;;;;;5.88;5.32;;;;;;;;;;5058228;28;20292;-87
2023/01/23 13:29:00;;;;;;;5.93;5.32;;;;;;;;;;5056324;28;20201;-86
2023/01/23 13:31:40;;;;;;;6.30;5.68;;;;;;;;;;5056793;28;20202;-86
2023/01/23 13:34:40;;;;;;;6.32;5.10;;;;;;;;;;5057067;28;20232;-86
2023/01/23 13:37:53;;;;;;;8.27;7.20;;;;;;;;;;5057566;28;20201;-86
2023/01/23 13:40:24;;;;;;;8.85;7.78;;;;;;;;;;5031561;28;20229;-86
2023/01/23 13:42:53;;;;;;;6.75;6.05;;;;;;;;;;5057252;28;20309;-86
2023/01/23 13:45:49;;;;;;;8.75;7.03;;;;;;;;;;5057744;28;20575;-86
2023/01/23 13:51:34;;;;;;;8.70;7.53;;;;;;;;;;5056779;28;20633;-86
2023/01/23 13:56:53;;;;;;;7.70;6.65;;;;;;;;;;5037714;28;20332;-87
2023/01/23 13:59:29;;;;;;;8.63;7.25;;;;;;;;;;5036420;28;20234;-86
2023/01/23 14:05:13;;;;;;;10.68;8.75;;;;;;;;;;5040215;28;20804;-86
2023/01/23 14:07:44;;;;;;;8.07;6.88;;;;;;;;;;5040904;28;20206;-88
2023/01/23 14:10:23;;;;;;;9.93;8.07;;;;;;;;;;5040540;28;20179;-87
2023/01/23 14:12:51;;;;;;;8.38;7.43;;;;;;;;;;5041188;28;20783;-87
2023/01/23 14:18:38;;;;;;;8.10;7.05;;;;;;;;;;5040339;28;20272;-86
2023/01/23 14:21:15;;;;;;;10.13;8.95;;;;;;;;;;5034685;28;20281;-86
2023/01/23 14:23:45;;;;;;;8.60;7.45;;;;;;;;;;5040285;28;20279;-86
2023/01/23 14:26:17;;;;;;;9.25;7.55;;;;;;;;;;5039629;28;20696;-87
2023/01/23 14:28:53;;;;;;;9.60;8.38;;;;;;;;;;5036964;28;20596;-85
2023/01/23 14:31:27;;;;;;;9.02;7.63;;;;;;;;;;5036399;28;20226;-85
2023/01/23 14:34:03;;;;;;;9.82;8.02;;;;;;;;;;5037345;28;20701;-85
2023/01/23 14:36:34;;;;;;;17.35;12.85;;;;;;;;;;5037671;28;20188;-85
2023/01/23 14:39:04;;;;;;;18.85;14.38;;;;;;;;;;5038256;28;20198;-85
2023/01/23 14:41:33;;;;;;;17.90;13.48;;;;;;;;;;5039306;28;20201;-85
2023/01/23 14:44:01;;;;;;;11.10;9.57;;;;;;;;;;5038619;28;20289;-85
2023/01/23 14:46:39;;;;;;;8.63;7.75;;;;;;;;;;5039183;28;20206;-86
2023/01/23 14:49:08;;;;;;;9.23;8.18;;;;;;;;;;5039191;28;20178;-86
2023/01/23 14:51:36;;;;;;;10.15;8.80;;;;;;;;;;5039014;28;20590;-86
2023/01/23 14:54:06;;;;;;;11.38;8.98;;;;;;;;;;5039204;28;20280;-86
2023/01/23 14:56:36;;;;;;;11.55;9.93;;;;;;;;;;5039573;28;20289;-86
2023/01/23 14:59:06;;;;;;;21.10;12.98;;;;;;;;;;5037958;28;20237;-86
2023/01/23 15:01:36;;;;;;;21.27;13.30;;;;;;;;;;5037700;28;20218;-86
2023/01/23 15:04:06;;;;;;;10.88;7.72;;;;;;;;;;5037919;28;20230;-86
2023/01/23 15:06:35;;;;;;;9.45;7.93;;;;;;;;;;5037257;28;20682;-86
2023/01/23 15:09:14;;;;;;;9.20;8.27;;;;;;;;;;5036555;28;20233;-86
2023/01/23 15:11:41;;;;;;;9.85;7.93;;;;;;;;;;5036217;28;20293;-85
2023/01/23 15:14:24;;;;;;;12.27;9.30;;;;;;;;;;5036304;28;20218;-85
2023/01/23 15:17:00;;;;;;;7.15;6.45;;;;;;;;;;5036492;28;20547;-86
2023/01/23 15:19:28;;;;;;;9.00;8.02;;;;;;;;;;5036139;28;20269;-86
2023/01/23 15:22:08;;;;;;;9.10;7.75;;;;;;;;;;5036958;28;20202;-85
2023/01/23 15:24:35;;;;;;;8.40;7.55;;;;;;;;;;5038508;28;20261;-85
2023/01/23 15:27:07;;;;;;;9.55;7.57;;;;;;;;;;5036600;28;20234;-86
2023/01/23 15:29:35;;;;;;;7.75;6.57;;;;;;;;;;5036197;28;20361;-87
2023/01/23 15:32:14;;;;;;;8.32;6.90;;;;;;;;;;5036234;28;20222;-85
2023/01/23 15:34:41;;;;;;;35.28;27.27;;;;;;;;;;5036743;28;20258;-86